createdAt,value
2023-03-27T00:01:41.603Z,96243.63
2023-03-27T00:04:07.896Z,96242.00
2023-03-27T00:06:34.244Z,96247.34
2023-03-27T00:09:00.523Z,96239.34
2023-03-27T00:11:26.796Z,96245.19
2023-03-27T00:13:53.041Z,96251.31
2023-03-27T00:16:19.374Z,96256.41
2023-03-27T00:18:45.776Z,96259.63
2023-03-27T00:21:12.089Z,96267.38
2023-03-27T00:23:38.347Z,96282.34
2023-03-27T00:26:04.681Z,96279.09
2023-03-27T00:28:30.939Z,96279.31
2023-03-27T00:30:57.404Z,96286.00
2023-03-27T00:33:23.911Z,96285.69
2023-03-27T00:35:50.190Z,96283.59
2023-03-27T00:38:16.480Z,96288.69
2023-03-27T00:40:42.785Z,96291.13
2023-03-27T00:43:09.125Z,96293.25
2023-03-27T00:45:35.399Z,96303.94
2023-03-27T00:48:01.675Z,96310.31
2023-03-27T00:50:27.992Z,96311.69
2023-03-27T00:52:54.238Z,96312.75
2023-03-27T00:55:20.526Z,96319.94
2023-03-27T00:57:46.815Z,96324.78
2023-03-27T01:00:13.092Z,96320.19
2023-03-27T01:02:39.390Z,96332.88
2023-03-27T01:05:05.706Z,96331.06
2023-03-27T01:07:31.973Z,96334.53
2023-03-27T01:09:58.232Z,96332.38
2023-03-27T01:12:24.499Z,96331.00
2023-03-27T01:14:50.750Z,96327.84
2023-03-27T01:17:17.000Z,96329.34
2023-03-27T01:19:43.244Z,96324.19
2023-03-27T01:22:09.509Z,96330.06
2023-03-27T01:24:35.825Z,96330.53
2023-03-27T01:27:02.094Z,96342.81
2023-03-27T01:29:28.364Z,96341.94
2023-03-27T01:31:54.661Z,96338.16
2023-03-27T01:34:20.926Z,96334.25
2023-03-27T01:36:47.193Z,96342.94
2023-03-27T01:39:13.488Z,96341.56
2023-03-27T01:41:39.751Z,96347.44
2023-03-27T01:44:06.006Z,96354.56
2023-03-27T01:46:32.309Z,96357.75
2023-03-27T01:48:58.595Z,96364.94
2023-03-27T01:51:24.863Z,96366.41
2023-03-27T01:53:51.101Z,96368.25
2023-03-27T01:56:17.347Z,96368.41
2023-03-27T01:58:43.589Z,96380.91
2023-03-27T02:01:10.210Z,96376.09
2023-03-27T02:03:36.785Z,96378.19
2023-03-27T02:06:03.068Z,96372.94
2023-03-27T02:08:29.298Z,96392.72
2023-03-27T02:10:55.743Z,96389.56
2023-03-27T02:13:22.156Z,96394.56
2023-03-27T02:15:48.414Z,96396.81
2023-03-27T02:18:14.712Z,96407.22
2023-03-27T02:20:40.989Z,96409.00
2023-03-27T02:23:07.259Z,96411.66
2023-03-27T02:25:33.539Z,96418.38
2023-03-27T02:27:59.815Z,96408.44
2023-03-27T02:30:26.049Z,96419.63
2023-03-27T02:32:52.345Z,96426.56
2023-03-27T02:35:18.633Z,96432.22
2023-03-27T02:37:44.915Z,96433.50
2023-03-27T02:40:11.180Z,96449.47
2023-03-27T02:42:37.468Z,96449.16
2023-03-27T02:45:03.781Z,96451.34
2023-03-27T02:47:30.131Z,96452.88
2023-03-27T02:49:56.416Z,96457.81
2023-03-27T02:52:22.693Z,96451.09
2023-03-27T02:54:48.972Z,96452.41
2023-03-27T02:57:15.306Z,96453.28
2023-03-27T02:59:41.584Z,96449.66
2023-03-27T03:02:07.903Z,96462.16
2023-03-27T03:04:34.177Z,96457.16
2023-03-27T03:07:00.432Z,96459.00
2023-03-27T03:09:26.692Z,96465.16
2023-03-27T03:11:52.965Z,96472.19
2023-03-27T03:14:19.228Z,96469.59
2023-03-27T03:16:45.567Z,96468.47
2023-03-27T03:19:11.936Z,96479.13
2023-03-27T03:21:38.207Z,96477.66
2023-03-27T03:24:04.467Z,96486.06
2023-03-27T03:26:30.700Z,96489.03
2023-03-27T03:29:00.852Z,96488.44
2023-03-27T03:31:27.939Z,96485.47
2023-03-27T03:33:54.233Z,96494.69
2023-03-27T03:36:20.483Z,96501.97
2023-03-27T03:38:46.761Z,96505.41
2023-03-27T03:41:13.014Z,96514.34
2023-03-27T03:43:39.289Z,96521.53
2023-03-27T03:46:05.618Z,96527.00
2023-03-27T03:48:31.968Z,96524.19
2023-03-27T03:50:58.356Z,96533.75
2023-03-27T03:53:24.792Z,96538.19
2023-03-27T03:55:51.049Z,96541.03
2023-03-27T03:58:17.320Z,96534.44
2023-03-27T04:00:43.665Z,96543.00
2023-03-27T04:03:10.006Z,96546.78
2023-03-27T04:05:36.376Z,96551.41
2023-03-27T04:08:02.666Z,96547.03
2023-03-27T04:10:28.944Z,96554.94
2023-03-27T04:12:55.216Z,96551.72
2023-03-27T04:15:21.474Z,96559.34
2023-03-27T04:17:47.926Z,96560.88
2023-03-27T04:20:14.242Z,96562.63
2023-03-27T04:22:40.524Z,96569.75
2023-03-27T04:25:06.801Z,96569.31
2023-03-27T04:27:33.053Z,96566.41
2023-03-27T04:29:59.315Z,96568.03
2023-03-27T04:32:25.579Z,96582.41
2023-03-27T04:34:51.893Z,96580.06
2023-03-27T04:37:18.188Z,96584.91
2023-03-27T04:39:49.740Z,96593.75
2023-03-27T04:42:16.069Z,96595.25
2023-03-27T04:44:42.331Z,96598.41
2023-03-27T04:47:09.039Z,96602.81
2023-03-27T04:49:35.425Z,96602.69
2023-03-27T04:52:01.695Z,96608.91
2023-03-27T04:54:27.947Z,96616.03
2023-03-27T04:56:54.224Z,96613.75
2023-03-27T04:59:20.539Z,96622.19
2023-03-27T05:01:46.874Z,96619.38
2023-03-27T05:04:13.161Z,96623.31
2023-03-27T05:06:40.552Z,96626.09
2023-03-27T05:09:07.013Z,96634.41
2023-03-27T05:11:33.362Z,96635.47
2023-03-27T05:13:59.627Z,96639.28
2023-03-27T05:16:25.900Z,96647.59
2023-03-27T05:18:52.167Z,96649.66
2023-03-27T05:21:18.475Z,96654.38
2023-03-27T05:23:44.765Z,96661.13
2023-03-27T05:26:11.130Z,96663.69
2023-03-27T05:28:37.393Z,96666.69
2023-03-27T05:31:03.731Z,96672.00
2023-03-27T05:33:30.054Z,96662.06
2023-03-27T05:35:56.339Z,96673.06
2023-03-27T05:38:24.849Z,96686.25
2023-03-27T05:40:51.179Z,96689.63
2023-03-27T05:43:17.419Z,96687.41
2023-03-27T05:45:43.804Z,96708.47
2023-03-27T05:48:10.181Z,96709.63
2023-03-27T05:50:36.466Z,96718.66
2023-03-27T05:53:02.722Z,96721.22
2023-03-27T05:55:28.988Z,96742.41
2023-03-27T05:57:55.286Z,96744.50
2023-03-27T06:00:21.538Z,96736.28
2023-03-27T06:02:47.914Z,96735.56
2023-03-27T06:05:14.231Z,96750.63
2023-03-27T06:07:42.984Z,96751.19
2023-03-27T06:10:13.683Z,96752.25
2023-03-27T06:12:40.512Z,96752.59
2023-03-27T06:15:06.894Z,96744.59
2023-03-27T06:17:33.192Z,96760.91
2023-03-27T06:19:59.559Z,96765.22
2023-03-27T06:22:25.826Z,96764.75
2023-03-27T06:24:52.080Z,96770.66
2023-03-27T06:27:18.348Z,96781.88
2023-03-27T06:29:44.683Z,96781.41
2023-03-27T06:32:10.930Z,96787.31
2023-03-27T06:34:37.196Z,96783.38
2023-03-27T06:37:03.484Z,96795.31
2023-03-27T06:39:29.786Z,96801.81
2023-03-27T06:41:56.061Z,96808.19
2023-03-27T06:44:22.337Z,96801.69
2023-03-27T06:46:48.718Z,96815.25
2023-03-27T06:49:15.004Z,96808.63
2023-03-27T06:51:41.260Z,96812.31
2023-03-27T06:54:07.613Z,96817.78
2023-03-27T06:56:33.922Z,96822.25
2023-03-27T06:59:00.260Z,96818.81
2023-03-27T07:01:26.586Z,96825.31
2023-03-27T07:03:52.894Z,96833.50
2023-03-27T07:06:19.175Z,96842.97
2023-03-27T07:08:47.681Z,96835.59
2023-03-27T07:11:15.257Z,96839.09
2023-03-27T07:13:41.633Z,96840.47
2023-03-27T07:16:07.932Z,96852.63
2023-03-27T07:18:34.234Z,96859.69
2023-03-27T07:21:00.780Z,96864.56
2023-03-27T07:23:27.254Z,96872.09
2023-03-27T07:25:53.553Z,96869.78
2023-03-27T07:28:19.857Z,96872.81
2023-03-27T07:30:46.128Z,96874.19
2023-03-27T07:33:12.722Z,96879.28
2023-03-27T07:35:39.255Z,96892.94
2023-03-27T07:38:05.616Z,96900.22
2023-03-27T07:40:39.384Z,96902.91
2023-03-27T07:43:06.522Z,96911.13
2023-03-27T07:45:32.812Z,96921.75
2023-03-27T07:47:59.182Z,96934.72
2023-03-27T07:50:25.475Z,96945.97
2023-03-27T07:52:51.718Z,96955.53
2023-03-27T07:55:17.989Z,96969.13
2023-03-27T08:00:13.485Z,96975.16
2023-03-27T08:02:39.929Z,96971.13
2023-03-27T08:05:06.453Z,96964.66
2023-03-27T08:07:32.820Z,96974.16
2023-03-27T08:09:59.242Z,96967.78
2023-03-27T08:12:25.505Z,96965.91
2023-03-27T08:14:51.784Z,96969.22
2023-03-27T08:17:19.972Z,96967.50
2023-03-27T08:19:47.760Z,96959.50
2023-03-27T08:22:14.041Z,96952.53
2023-03-27T08:24:40.361Z,96958.59
2023-03-27T08:27:06.638Z,96957.41
2023-03-27T08:29:32.928Z,96967.69
2023-03-27T08:31:59.226Z,96969.69
2023-03-27T08:34:25.492Z,96971.63
2023-03-27T08:36:51.765Z,96972.22
2023-03-27T08:39:18.034Z,96974.94
2023-03-27T08:41:44.300Z,96985.28
2023-03-27T08:44:10.707Z,97007.06
2023-03-27T08:46:37.039Z,97014.69
2023-03-27T08:49:03.334Z,97013.22
2023-03-27T08:51:29.658Z,97029.25
2023-03-27T08:53:55.946Z,97049.28
2023-03-27T08:56:22.250Z,97058.16
2023-03-27T08:58:48.533Z,97060.44
2023-03-27T09:01:14.878Z,97066.44
2023-03-27T09:03:41.252Z,97061.34
2023-03-27T09:06:07.611Z,97054.16
2023-03-27T09:08:33.865Z,97043.94
2023-03-27T09:11:00.166Z,97037.13
2023-03-27T09:13:26.748Z,97036.00
2023-03-27T09:15:53.041Z,97025.59
2023-03-27T09:18:19.331Z,97033.25
2023-03-27T09:20:45.605Z,97037.34
2023-03-27T09:23:11.856Z,97046.31
2023-03-27T09:25:38.129Z,97061.31
2023-03-27T09:28:04.382Z,97056.81
2023-03-27T09:30:30.640Z,97070.88
2023-03-27T09:32:56.980Z,97067.31
2023-03-27T09:35:23.360Z,97085.56
2023-03-27T09:37:49.775Z,97089.50
2023-03-27T09:40:16.071Z,97088.00
2023-03-27T09:42:42.331Z,97083.94
2023-03-27T09:45:08.611Z,97079.56
2023-03-27T09:47:34.921Z,97082.19
2023-03-27T09:50:01.188Z,97084.38
2023-03-27T09:52:27.461Z,97096.50
2023-03-27T09:54:53.799Z,97106.56
2023-03-27T09:57:20.115Z,97101.06
2023-03-27T09:59:46.484Z,97105.66
2023-03-27T10:02:12.764Z,97111.56
2023-03-27T10:04:39.025Z,97111.06
2023-03-27T10:07:05.347Z,97112.75
2023-03-27T10:09:31.650Z,97118.66
2023-03-27T10:11:57.920Z,97121.84
2023-03-27T10:14:24.171Z,97123.88
2023-03-27T10:16:50.515Z,97129.94
2023-03-27T10:19:16.799Z,97145.25
2023-03-27T10:21:43.055Z,97140.47
2023-03-27T10:24:09.371Z,97141.94
2023-03-27T10:26:35.640Z,97152.28
2023-03-27T10:29:01.910Z,97155.03
2023-03-27T10:31:28.260Z,97158.81
2023-03-27T10:33:54.612Z,97161.09
2023-03-27T10:36:20.884Z,97167.28
2023-03-27T10:38:47.146Z,97162.56
2023-03-27T10:41:13.422Z,97173.38
2023-03-27T10:43:39.688Z,97168.63
2023-03-27T10:46:05.995Z,97172.19
2023-03-27T10:48:32.289Z,97161.75
2023-03-27T10:50:58.737Z,97171.06
2023-03-27T10:53:25.197Z,97173.53
2023-03-27T10:55:51.585Z,97169.22
2023-03-27T10:58:17.887Z,97163.59
2023-03-27T11:00:44.148Z,97175.75
2023-03-27T11:03:10.494Z,97171.16
2023-03-27T11:05:36.805Z,97188.31
2023-03-27T11:08:03.109Z,97178.56
2023-03-27T11:10:29.401Z,97179.75
2023-03-27T11:12:55.671Z,97188.25
2023-03-27T11:15:21.968Z,97184.91
2023-03-27T11:17:48.290Z,97197.94
2023-03-27T11:20:14.601Z,97190.00
2023-03-27T11:22:40.856Z,97202.66
2023-03-27T11:25:07.092Z,97205.81
2023-03-27T11:27:33.394Z,97216.97
2023-03-27T11:29:59.697Z,97214.34
2023-03-27T11:32:26.037Z,97221.66
2023-03-27T11:34:52.332Z,97214.34
2023-03-27T11:37:18.601Z,97219.22
2023-03-27T11:39:44.885Z,97215.38
2023-03-27T11:42:11.137Z,97229.31
2023-03-27T11:44:37.396Z,97217.16
2023-03-27T11:47:03.697Z,97234.81
2023-03-27T11:49:29.972Z,97237.88
2023-03-27T11:51:56.245Z,97236.31
2023-03-27T11:54:22.543Z,97243.06
2023-03-27T11:56:48.860Z,97247.50
2023-03-27T11:59:15.150Z,97252.41
2023-03-27T12:01:41.420Z,97259.38
2023-03-27T12:04:07.781Z,97276.16
2023-03-27T12:06:34.096Z,97264.63
2023-03-27T12:09:00.369Z,97272.16
2023-03-27T12:11:26.633Z,97273.47
2023-03-27T12:14:01.103Z,97281.41
2023-03-27T12:16:28.274Z,97274.59
2023-03-27T12:19:03.786Z,97282.50
2023-03-27T12:21:32.415Z,97291.06
2023-03-27T12:23:58.668Z,97308.78
2023-03-27T12:26:24.937Z,97301.88
2023-03-27T12:28:51.255Z,97300.75
2023-03-27T12:31:17.555Z,97300.47
2023-03-27T12:33:43.861Z,97302.38
2023-03-27T12:36:10.187Z,97315.13
2023-03-27T12:38:36.527Z,97308.19
2023-03-27T12:41:02.804Z,97313.91
2023-03-27T12:43:29.096Z,97312.19
2023-03-27T12:45:55.392Z,97315.69
2023-03-27T12:48:21.688Z,97302.13
2023-03-27T12:50:48.010Z,97301.63
2023-03-27T12:53:14.278Z,97304.22
2023-03-27T12:55:40.543Z,97292.53
2023-03-27T12:58:06.953Z,97306.97
2023-03-27T13:00:33.308Z,97311.09
2023-03-27T13:02:59.624Z,97316.22
2023-03-27T13:05:27.830Z,97311.72
2023-03-27T13:07:54.756Z,97315.09
2023-03-27T13:10:21.123Z,97322.75
2023-03-27T13:12:47.407Z,97326.00
2023-03-27T13:15:13.667Z,97332.25
2023-03-27T13:17:39.978Z,97338.81
2023-03-27T13:20:06.483Z,97340.72
2023-03-27T13:22:36.563Z,97347.16
2023-03-27T13:25:03.461Z,97349.03
2023-03-27T13:27:29.740Z,97346.59
2023-03-27T13:29:55.989Z,97353.06
2023-03-27T13:32:22.314Z,97343.34
2023-03-27T13:34:48.728Z,97363.22
2023-03-27T13:37:15.053Z,97364.22
2023-03-27T13:39:41.396Z,97370.78
2023-03-27T13:42:07.656Z,97377.25
2023-03-27T13:44:33.918Z,97365.91
2023-03-27T13:47:00.240Z,97374.31
2023-03-27T13:49:26.592Z,97374.00
2023-03-27T13:51:52.845Z,97367.53
2023-03-27T13:54:19.122Z,97376.28
2023-03-27T13:56:45.428Z,97376.72
2023-03-27T13:59:11.887Z,97377.69
2023-03-27T14:01:38.237Z,97382.44
2023-03-27T14:04:04.537Z,97388.69
2023-03-27T14:06:30.852Z,97390.38
2023-03-27T14:08:57.111Z,97395.03
2023-03-27T14:11:23.426Z,97390.41
2023-03-27T14:13:49.686Z,97404.88
2023-03-27T14:16:16.010Z,97401.31
2023-03-27T14:18:42.312Z,97405.03
2023-03-27T14:21:08.587Z,97404.00
2023-03-27T14:23:34.937Z,97413.97
2023-03-27T14:26:01.193Z,97410.94
2023-03-27T14:28:27.456Z,97425.31
2023-03-27T14:30:54.999Z,97421.97
2023-03-27T14:33:21.352Z,97420.22
2023-03-27T14:35:47.663Z,97420.34
2023-03-27T14:38:13.951Z,97430.50
2023-03-27T14:40:40.265Z,97424.38
2023-03-27T14:43:06.530Z,97420.19
2023-03-27T14:45:32.909Z,97426.38
2023-03-27T14:47:59.334Z,97430.13
2023-03-27T14:50:25.724Z,97422.00
2023-03-27T14:52:52.003Z,97429.06
2023-03-27T14:55:18.284Z,97422.81
2023-03-27T14:57:44.608Z,97425.94
2023-03-27T15:00:10.956Z,97426.25
2023-03-27T15:02:37.257Z,97419.78
2023-03-27T15:05:03.590Z,97435.72
2023-03-27T15:07:29.852Z,97438.59
2023-03-27T15:09:56.150Z,97432.16
2023-03-27T15:12:22.397Z,97426.69
2023-03-27T15:14:48.672Z,97443.72
2023-03-27T15:17:14.981Z,97438.91
2023-03-27T15:19:41.531Z,97441.28
2023-03-27T15:22:07.863Z,97430.69
2023-03-27T15:24:34.195Z,97434.91
2023-03-27T15:27:00.554Z,97434.91
2023-03-27T15:29:26.805Z,97442.31
2023-03-27T15:31:53.069Z,97440.31
2023-03-27T15:34:19.361Z,97444.16
2023-03-27T15:36:45.641Z,97443.78
2023-03-27T15:39:11.929Z,97446.09
2023-03-27T15:41:38.195Z,97453.97
2023-03-27T15:44:04.480Z,97447.28
2023-03-27T15:46:30.771Z,97449.28
2023-03-27T15:48:57.137Z,97453.88
2023-03-27T15:51:23.428Z,97453.72
2023-03-27T15:53:49.708Z,97454.47
2023-03-27T15:56:15.966Z,97456.69
2023-03-27T15:58:42.242Z,97471.22
2023-03-27T16:01:19.658Z,97456.09
2023-03-27T16:03:46.421Z,97470.31
2023-03-27T16:06:12.787Z,97474.75
2023-03-27T16:08:39.032Z,97477.72
2023-03-27T16:11:05.304Z,97470.31
2023-03-27T16:13:31.618Z,97470.72
2023-03-27T16:15:58.077Z,97470.03
2023-03-27T16:18:24.712Z,97474.94
2023-03-27T16:20:50.992Z,97470.84
2023-03-27T16:23:17.254Z,97476.09
2023-03-27T16:25:43.496Z,97473.88
2023-03-27T16:28:09.907Z,97478.06
2023-03-27T16:30:36.304Z,97472.34
2023-03-27T16:33:03.040Z,97478.16
2023-03-27T16:35:29.366Z,97478.78
2023-03-27T16:37:55.663Z,97484.44
2023-03-27T16:40:21.918Z,97487.00
2023-03-27T16:42:48.209Z,97494.84
2023-03-27T16:45:14.466Z,97501.91
2023-03-27T16:47:40.790Z,97491.69
2023-03-27T16:50:11.735Z,97503.25
2023-03-27T16:52:38.176Z,97510.31
2023-03-27T16:55:06.456Z,97509.34
2023-03-27T16:57:33.625Z,97506.41
2023-03-27T16:59:59.896Z,97509.69
2023-03-27T17:02:26.239Z,97510.13
2023-03-27T17:04:55.418Z,97508.72
2023-03-27T17:07:21.803Z,97515.06
2023-03-27T17:09:48.074Z,97521.28
2023-03-27T17:12:14.330Z,97520.59
2023-03-27T17:14:40.607Z,97514.50
2023-03-27T17:17:06.903Z,97525.28
2023-03-27T17:19:33.213Z,97521.41
2023-03-27T17:21:59.553Z,97530.88
2023-03-27T17:24:25.859Z,97531.09
2023-03-27T17:26:52.179Z,97539.91
2023-03-27T17:29:18.481Z,97532.97
2023-03-27T17:31:44.780Z,97544.22
2023-03-27T17:34:11.089Z,97549.75
2023-03-27T17:36:44.943Z,97554.91
2023-03-27T17:39:15.982Z,97557.38
2023-03-27T17:41:42.256Z,97556.94
2023-03-27T17:44:08.596Z,97559.66
2023-03-27T17:46:34.938Z,97561.31
2023-03-27T17:49:01.257Z,97567.69
2023-03-27T17:51:27.561Z,97567.25
2023-03-27T17:53:53.835Z,97584.69
2023-03-27T17:56:20.143Z,97580.25
2023-03-27T17:58:46.519Z,97582.13
2023-03-27T18:01:12.940Z,97593.00
2023-03-27T18:03:39.528Z,97594.22
2023-03-27T18:06:05.850Z,97598.72
2023-03-27T18:08:32.107Z,97604.47
2023-03-27T18:10:58.492Z,97615.13
2023-03-27T18:13:24.846Z,97617.16
2023-03-27T18:15:51.173Z,97614.31
2023-03-27T18:18:17.488Z,97615.34
2023-03-27T18:20:43.768Z,97621.50
2023-03-27T18:23:10.060Z,97628.06
2023-03-27T18:25:36.341Z,97631.97
2023-03-27T18:28:02.648Z,97634.19
2023-03-27T18:30:30.429Z,97638.50
2023-03-27T18:32:58.089Z,97638.72
2023-03-27T18:35:24.364Z,97635.03
2023-03-27T18:37:50.646Z,97639.34
2023-03-27T18:40:16.949Z,97638.53
2023-03-27T18:42:43.240Z,97648.75
2023-03-27T18:45:09.543Z,97650.03
2023-03-27T18:47:35.919Z,97649.81
2023-03-27T18:50:02.217Z,97660.06
2023-03-27T18:52:28.582Z,97663.94
2023-03-27T18:54:54.932Z,97664.16
2023-03-27T18:57:21.268Z,97665.38
2023-03-27T18:59:47.560Z,97656.56
2023-03-27T19:02:13.871Z,97664.97
2023-03-27T19:04:40.192Z,97666.59
2023-03-27T19:07:08.638Z,97671.50
2023-03-27T19:09:41.387Z,97676.03
2023-03-27T19:12:08.540Z,97677.88
2023-03-27T19:14:34.997Z,97678.47
2023-03-27T19:17:01.340Z,97672.53
2023-03-27T19:19:27.631Z,97676.63
2023-03-27T19:21:53.911Z,97673.97
2023-03-27T19:24:20.232Z,97676.63
2023-03-27T19:26:46.526Z,97673.56
2023-03-27T19:29:12.867Z,97682.97
2023-03-27T19:31:39.276Z,97682.16
2023-03-27T19:34:05.552Z,97682.16
2023-03-27T19:36:31.929Z,97681.97
2023-03-27T19:38:58.335Z,97689.53
2023-03-27T19:41:24.609Z,97688.72
2023-03-27T19:43:50.958Z,97689.53
2023-03-27T19:46:17.272Z,97688.50
2023-03-27T19:48:43.584Z,97686.47
2023-03-27T19:51:10.044Z,97687.88
2023-03-27T19:53:36.310Z,97689.94
2023-03-27T19:56:02.607Z,97678.06
2023-03-27T19:58:29.150Z,97687.88
2023-03-27T20:00:55.436Z,97689.13
2023-03-27T20:03:21.752Z,97682.75
2023-03-27T20:05:48.045Z,97687.88
2023-03-27T20:08:14.328Z,97680.09
2023-03-27T20:10:40.576Z,97682.75
2023-03-27T20:13:06.826Z,97689.13
2023-03-27T20:15:33.171Z,97687.47
2023-03-27T20:17:59.580Z,97695.03
2023-03-27T20:20:25.887Z,97697.50
2023-03-27T20:22:57.466Z,97697.72
2023-03-27T20:25:24.095Z,97691.56
2023-03-27T20:27:50.376Z,97692.59
2023-03-27T20:30:17.094Z,97694.44
2023-03-27T20:32:43.724Z,97689.50
2023-03-27T20:35:20.782Z,97694.84
2023-03-27T20:37:50.421Z,97695.25
2023-03-27T20:40:16.742Z,97700.38
2023-03-27T20:42:43.015Z,97700.16
2023-03-27T20:45:09.295Z,97708.78
2023-03-27T20:47:35.682Z,97712.06
2023-03-27T20:50:02.008Z,97709.59
2023-03-27T20:52:28.321Z,97723.13
2023-03-27T20:54:54.626Z,97717.00
2023-03-27T20:57:21.067Z,97720.25
2023-03-27T20:59:47.754Z,97717.59
2023-03-27T21:02:14.077Z,97725.19
2023-03-27T21:04:41.470Z,97720.47
2023-03-27T21:07:07.804Z,97728.84
2023-03-27T21:09:34.122Z,97721.47
2023-03-27T21:12:00.448Z,97724.75
2023-03-27T21:14:26.802Z,97727.00
2023-03-27T21:16:53.147Z,97726.81
2023-03-27T21:19:19.454Z,97719.84
2023-03-27T21:21:45.814Z,97715.97
2023-03-27T21:24:12.100Z,97717.81
2023-03-27T21:26:38.371Z,97720.06
2023-03-27T21:29:04.652Z,97716.59
2023-03-27T21:31:30.915Z,97715.75
2023-03-27T21:33:57.189Z,97722.72
2023-03-27T21:36:23.577Z,97720.28
2023-03-27T21:38:49.956Z,97722.53
2023-03-27T21:41:16.295Z,97724.97
2023-03-27T21:43:42.580Z,97725.41
2023-03-27T21:46:08.857Z,97725.41
2023-03-27T21:48:35.254Z,97723.97
2023-03-27T21:51:01.577Z,97725.59
2023-03-27T21:53:27.915Z,97736.25
2023-03-27T21:55:54.353Z,97736.66
2023-03-27T21:58:20.655Z,97733.78
2023-03-27T22:00:46.910Z,97734.19
2023-03-27T22:03:13.175Z,97741.97
2023-03-27T22:05:39.478Z,97752.22
2023-03-27T22:08:05.739Z,97754.25
2023-03-27T22:10:31.994Z,97750.97
2023-03-27T22:12:58.251Z,97754.25
2023-03-27T22:15:24.524Z,97748.13
2023-03-27T22:17:50.820Z,97753.03
2023-03-27T22:20:17.101Z,97753.22
2023-03-27T22:22:43.372Z,97759.38
2023-03-27T22:25:09.630Z,97762.84
2023-03-27T22:27:35.885Z,97756.31
2023-03-27T22:30:02.138Z,97761.22
2023-03-27T22:32:28.456Z,97761.84
2023-03-27T22:34:54.736Z,97765.72
2023-03-27T22:37:21.069Z,97764.50
2023-03-27T22:39:47.362Z,97767.34
2023-03-27T22:42:13.665Z,97768.38
2023-03-27T22:44:39.961Z,97764.91
2023-03-27T22:47:06.229Z,97770.22
2023-03-27T22:49:32.521Z,97769.00
2023-03-27T22:51:58.769Z,97765.72
2023-03-27T22:54:25.021Z,97766.75
2023-03-27T22:56:51.303Z,97764.91
2023-03-27T22:59:17.632Z,97767.75
2023-03-27T23:01:43.970Z,97763.66
2023-03-27T23:04:10.287Z,97761.41
2023-03-27T23:06:36.562Z,97765.91
2023-03-27T23:09:02.818Z,97766.13
2023-03-27T23:11:29.083Z,97769.59
2023-03-27T23:13:55.341Z,97766.91
2023-03-27T23:16:21.617Z,97765.47
2023-03-27T23:18:47.876Z,97769.97
2023-03-27T23:21:14.131Z,97771.41
2023-03-27T23:23:40.494Z,97770.81
2023-03-27T23:26:06.782Z,97776.53
2023-03-27T23:28:33.074Z,97778.38
2023-03-27T23:30:59.371Z,97786.94
2023-03-27T23:33:25.641Z,97779.38
2023-03-27T23:35:51.996Z,97782.84
2023-03-27T23:38:18.278Z,97788.97
2023-03-27T23:40:44.509Z,97784.88
2023-03-27T23:43:10.796Z,97784.06
2023-03-27T23:45:37.080Z,97790.00
2023-03-27T23:48:03.373Z,97790.00
2023-03-27T23:50:29.672Z,97791.84
2023-03-27T23:52:55.928Z,97791.22
2023-03-27T23:55:22.211Z,97793.44
2023-03-27T23:57:48.494Z,97798.75
